Messwerte Keetmanshoop

Temperatur

Temperatur
°C
1573614000 5.00 5.00 15
1573617600 6.00 6.00
1573621200 7.00 7.00 16
1573624800 8.00 8.00 18
1573628400 9.00 9.00 22
1573632000 10.00 10.00 23
1573635600 11.00 11.00 26
1573639200 12.00 12.00 28
1573642800 13.00 13.00 30
1573646400 14.00 14.00 31
1573650000 15.00 15.00
1573653600 16.00 16.00 33
1573657200 17.00 17.00 32
1573660800 18.00 18.00
1573664400 19.00 19.00
1573668000 20.00 20.00 28
1573671600 21.00 21.00 27
1573675200 22.00 22.00 25
1573678800 23.00 23.00 24
1573682400 0.00 0.00 23
1573686000 1.00 1.00 21
1573689600 2.00 2.00 21
1573693200 3.00 3.00 20
1573696800 4.00 4.00 19

Aktuellste Messwerte

Temperatur
19 °C
Feuchtigkeit
45 %
Wind
10 km/hWindrichtung: Südwest
Luftdruck
1000 hPa
Messzeit: 14. November 2019, 4.00Datenquelle: METAR

Weitere Messstationen in der Nähe

Messstation Temperatur Entfernung
Mariental 20 °C 214 km
Alexander Bay 16 °C 269 km
Lüderitz 15 °C 300 km
Springbok 18 °C 350 km
Upington 18 °C 375 km
Windhuk 21 °C 448 km
Windhoek - 455 km

Wind

Windrichtung Böen Mittelwind
° km/h km/h
1573614000 5.00 4.00 - 5.00 220° 10
1573617600 6.00 5.00 - 6.00
1573621200 7.00 6.00 - 7.00 250° 10
1573624800 8.00 7.00 - 8.00 250° 5
1573628400 9.00 8.00 - 9.00 310° 5
1573632000 10.00 9.00 - 10.00 260° 5
1573635600 11.00 10.00 - 11.00 200° 5
1573639200 12.00 11.00 - 12.00 270° 5
1573642800 13.00 12.00 - 13.00 310° 5
1573646400 14.00 13.00 - 14.00 210° 10
1573650000 15.00 14.00 - 15.00
1573653600 16.00 15.00 - 16.00 260° 20
1573657200 17.00 16.00 - 17.00 210° 15
1573660800 18.00 17.00 - 18.00
1573664400 19.00 18.00 - 19.00
1573668000 20.00 19.00 - 20.00 200° 20
1573671600 21.00 20.00 - 21.00 210° 20
1573675200 22.00 21.00 - 22.00 190° 5
1573678800 23.00 22.00 - 23.00 190° 10
1573682400 0.00 23.00 - 0.00 180° 10
1573686000 1.00 0.00 - 1.00 230° 5
1573689600 2.00 1.00 - 2.00 220° 5
1573693200 3.00 2.00 - 3.00 230° 10
1573696800 4.00 3.00 - 4.00 220° 10

Ihre Wetterstation

Fehlt Ihre Wetterstation auf unserem Portal?

Schreiben Sie an network@meteonews.ch

Klima

Wann ist es am wärmsten? Wann regnet es am wenigsten? Unsere Klimadaten geben Auskunft.